Terminal Aerodrome Forecast
Issued by NWS Portland, OR

Home | Current Version | Previous Version | Text Only | Print | Product List | Glossary On
Versions: 1 2 3 4 5 6 7 8 9 10 11 12 13 14 15 16 17 18
000
FTUS46 KPQR 261733
TAFSLE
TAF
KSLE 261733Z 2618/2718 18004KT P6SM SCT030 OVC040
     FM261900 20006KT P6SM SCT025 OVC035
     FM262200 22006KT P6SM SCT035 OVC045
     FM270000 33008KT P6SM SCT035 BKN050
     FM270400 VRB03KT P6SM SCT050
     FM271000 VRB03KT P6SM BKN035=

USA.gov is the U.S. government's official web portal to all federal, state and local government web resources and services.